Time;durP1;ratioP1;P1;durP2;ratioP2;P2;SDS_P1;SDS_P2;PMS_P1;PMS_P2;Temp;Humidity;BMP_temperature;BMP_pressure;BME280_temperature;BME280_humidity;BME280_pressure;Samples;Min_cycle;Max_cycle;Signal;HPM_P1;HPM_P2
2023/07/16 00:01:03;;;;;;;6.55;2.25;;;17.80;99.90;;;;;;5033011;28;20068;-71
2023/07/16 00:03:28;;;;;;;3.50;1.45;;;17.70;99.90;;;;;;5033037;28;20404;-71
2023/07/16 00:05:54;;;;;;;8.50;1.92;;;17.70;99.90;;;;;;5034096;28;20069;-71
2023/07/16 00:08:20;;;;;;;6.25;2.10;;;17.70;99.90;;;;;;5034149;28;20037;-71
2023/07/16 00:10:45;;;;;;;7.15;2.13;;;17.60;99.90;;;;;;5034192;28;20045;-71
2023/07/16 00:13:11;;;;;;;8.20;2.17;;;17.60;99.90;;;;;;5033151;28;20490;-71
2023/07/16 00:15:36;;;;;;;6.30;2.33;;;17.60;99.90;;;;;;5034144;28;20111;-71
2023/07/16 00:18:02;;;;;;;6.38;2.53;;;17.60;99.90;;;;;;5033933;28;20068;-71
2023/07/16 00:20:28;;;;;;;7.95;2.88;;;17.50;99.90;;;;;;5033981;28;20041;-71
2023/07/16 00:22:54;;;;;;;10.40;3.05;;;17.50;99.90;;;;;;5033879;28;20029;-71
2023/07/16 00:25:19;;;;;;;9.00;2.92;;;17.50;99.90;;;;;;5034104;28;20041;-71
2023/07/16 00:27:46;;;;;;;8.50;2.97;;;17.50;99.90;;;;;;5032320;28;20079;-71
2023/07/16 00:30:12;;;;;;;7.50;2.53;;;17.40;99.90;;;;;;5032828;28;20044;-71
2023/07/16 00:32:38;;;;;;;6.57;2.63;;;17.40;99.90;;;;;;5033857;28;20050;-71
2023/07/16 00:35:05;;;;;;;5.93;2.10;;;17.40;99.90;;;;;;5032741;28;20072;-71
2023/07/16 00:37:31;;;;;;;5.72;2.00;;;17.40;99.90;;;;;;5033039;28;20046;-71
2023/07/16 00:39:56;;;;;;;9.20;2.20;;;17.40;99.90;;;;;;5033775;28;20045;-71
2023/07/16 00:42:22;;;;;;;8.23;2.13;;;17.40;99.90;;;;;;5033825;28;20591;-71
2023/07/16 00:44:48;;;;;;;4.20;1.77;;;17.30;99.90;;;;;;5033692;28;20041;-71
2023/07/16 00:47:13;;;;;;;4.65;1.92;;;17.30;99.90;;;;;;5031734;28;20073;-71
2023/07/16 00:49:39;;;;;;;5.03;1.83;;;17.30;99.90;;;;;;5033453;28;20128;-71
2023/07/16 00:52:07;;;;;;;4.18;2.15;;;17.20;99.90;;;;;;5032378;28;20060;-71
2023/07/16 00:54:33;;;;;;;11.02;2.53;;;17.20;99.90;;;;;;5015973;28;20056;-71
2023/07/16 00:56:59;;;;;;;6.75;1.95;;;17.20;99.90;;;;;;5032737;28;20041;-71
2023/07/16 00:59:24;;;;;;;10.77;2.90;;;17.20;99.90;;;;;;5031937;28;20053;-71
2023/07/16 01:01:50;;;;;;;9.15;2.33;;;17.10;99.90;;;;;;5031951;28;20052;-71
2023/07/16 01:04:16;;;;;;;9.95;2.78;;;17.10;99.90;;;;;;5033212;28;20129;-71
2023/07/16 01:06:46;;;;;;;9.35;3.22;;;17.10;99.90;;;;;;5032609;28;20049;-71
2023/07/16 01:09:18;;;;;;;11.05;3.63;;;17.20;99.90;;;;;;5031616;28;20048;-71
2023/07/16 01:11:45;;;;;;;11.25;2.78;;;17.20;99.90;;;;;;5031810;28;20037;-71
2023/07/16 01:14:12;;;;;;;5.38;2.67;;;17.20;99.90;;;;;;5032852;28;20037;-71
2023/07/16 01:16:38;;;;;;;8.88;2.97;;;17.20;99.90;;;;;;5032250;28;20512;-71
2023/07/16 01:19:05;;;;;;;7.10;2.03;;;17.20;99.90;;;;;;5032666;28;20041;-72
2023/07/16 01:21:50;;;;;;;8.27;2.25;;;17.20;99.90;;;;;;5033036;28;20083;-71
2023/07/16 01:24:25;;;;;;;5.57;2.47;;;17.20;99.90;;;;;;5032348;28;20050;-71
2023/07/16 01:27:27;;;;;;;11.02;3.05;;;17.20;99.90;;;;;;5032159;28;20103;-71
2023/07/16 01:30:08;;;;;;;5.78;1.90;;;17.20;99.90;;;;;;5032888;28;20049;-71
2023/07/16 01:32:37;;;;;;;6.72;2.53;;;17.20;99.90;;;;;;5024006;28;20081;-71
2023/07/16 01:35:04;;;;;;;5.70;2.40;;;17.20;99.90;;;;;;5011629;28;20042;-71
2023/07/16 01:37:29;;;;;;;10.77;2.60;;;17.10;99.90;;;;;;5010990;28;20061;-72
2023/07/16 01:39:55;;;;;;;9.15;1.90;;;17.10;99.90;;;;;;5011328;28;20041;-71
2023/07/16 01:42:21;;;;;;;10.20;2.60;;;17.10;99.90;;;;;;5011571;28;20440;-71
2023/07/16 01:44:46;;;;;;;6.20;2.17;;;17.10;99.90;;;;;;5011713;28;20088;-72
2023/07/16 01:47:19;;;;;;;6.57;1.98;;;17.10;99.90;;;;;;5011184;28;20041;-71
2023/07/16 01:49:45;;;;;;;9.65;2.35;;;17.10;99.90;;;;;;5012745;28;20050;-71
2023/07/16 01:52:10;;;;;;;8.13;2.20;;;17.00;99.90;;;;;;5011163;28;20049;-71
2023/07/16 01:54:36;;;;;;;4.93;2.13;;;17.00;99.90;;;;;;5012460;28;20052;-71
2023/07/16 01:57:02;;;;;;;11.55;2.85;;;17.00;99.90;;;;;;5011910;28;20061;-71
2023/07/16 01:59:28;;;;;;;8.40;2.38;;;16.90;99.90;;;;;;5012297;28;20407;-71
2023/07/16 02:01:53;;;;;;;5.28;2.05;;;16.90;99.90;;;;;;5012277;28;20597;-71
2023/07/16 02:04:19;;;;;;;8.43;2.53;;;16.90;99.90;;;;;;5012415;28;20087;-71
2023/07/16 02:06:45;;;;;;;8.95;2.30;;;16.80;99.90;;;;;;5011846;28;20045;-71
2023/07/16 02:09:10;;;;;;;7.53;2.20;;;16.80;99.90;;;;;;5012277;28;20030;-71
2023/07/16 02:11:36;;;;;;;12.55;2.85;;;16.80;99.90;;;;;;5012473;28;20515;-71
2023/07/16 02:14:02;;;;;;;4.85;2.15;;;16.70;99.90;;;;;;5012380;28;20050;-71
2023/07/16 02:16:27;;;;;;;9.55;3.67;;;16.70;99.90;;;;;;5011758;28;20044;-71
2023/07/16 02:18:53;;;;;;;7.18;3.28;;;16.70;99.90;;;;;;5010904;28;20041;-71
2023/07/16 02:21:18;;;;;;;7.03;2.00;;;16.60;99.90;;;;;;5010329;28;20413;-71
2023/07/16 02:23:44;;;;;;;6.63;2.63;;;16.70;99.90;;;;;;5012027;28;20038;-71
2023/07/16 02:26:10;;;;;;;8.63;2.70;;;16.70;99.90;;;;;;5011823;28;20708;-71
2023/07/16 02:28:35;;;;;;;6.10;2.90;;;16.70;99.90;;;;;;5012144;28;20066;-71
2023/07/16 02:31:02;;;;;;;11.30;3.25;;;16.80;99.90;;;;;;5010704;28;20412;-71
2023/07/16 02:33:28;;;;;;;7.50;2.80;;;16.80;99.90;;;;;;5012041;28;20173;-71
2023/07/16 02:35:54;;;;;;;6.70;2.80;;;16.80;99.90;;;;;;5011709;28;20524;-71
2023/07/16 02:38:19;;;;;;;7.78;2.75;;;16.90;99.90;;;;;;5011642;28;20084;-71
2023/07/16 02:40:46;;;;;;;7.80;3.05;;;16.90;99.90;;;;;;5011810;28;20045;-71
2023/07/16 02:43:11;;;;;;;9.82;3.28;;;16.90;99.90;;;;;;5011888;28;20490;-71
2023/07/16 02:45:37;;;;;;;14.05;3.05;;;16.90;99.90;;;;;;5011650;28;20037;-71
2023/07/16 02:48:04;;;;;;;9.57;3.63;;;16.90;99.90;;;;;;5011612;28;20093;-71
2023/07/16 02:50:29;;;;;;;8.77;3.17;;;16.90;99.90;;;;;;5011732;28;20420;-71
2023/07/16 02:52:55;;;;;;;10.35;3.63;;;17.00;99.90;;;;;;5010512;28;20034;-71
2023/07/16 02:55:21;;;;;;;9.57;3.50;;;17.00;99.90;;;;;;5011777;28;20045;-71
2023/07/16 02:57:46;;;;;;;9.85;3.13;;;17.00;99.90;;;;;;5011269;28;20116;-71
2023/07/16 03:00:12;;;;;;;8.50;3.30;;;17.00;99.90;;;;;;5013051;28;20034;-71
2023/07/16 03:02:38;;;;;;;10.80;3.92;;;17.00;99.90;;;;;;5027205;28;20033;-71
2023/07/16 03:05:03;;;;;;;9.80;3.05;;;17.00;99.90;;;;;;5022070;28;20061;-71
2023/07/16 03:07:29;;;;;;;9.75;4.03;;;17.00;99.90;;;;;;5029734;28;20087;-71
2023/07/16 03:09:55;;;;;;;10.52;3.75;;;17.00;99.90;;;;;;5030751;28;20037;-71
2023/07/16 03:12:20;;;;;;;7.28;3.50;;;17.00;99.90;;;;;;5030958;28;20052;-71
2023/07/16 03:14:46;;;;;;;8.18;3.75;;;17.00;99.90;;;;;;5031208;28;20037;-70
2023/07/16 03:17:11;;;;;;;10.77;3.35;;;17.00;99.90;;;;;;5030722;28;20562;-71
2023/07/16 03:19:37;;;;;;;9.13;3.42;;;17.00;99.90;;;;;;5031092;28;20038;-71
2023/07/16 03:22:03;;;;;;;8.68;3.47;;;17.00;99.90;;;;;;5030919;28;20041;-71
2023/07/16 03:24:29;;;;;;;10.05;3.88;;;17.00;99.90;;;;;;5029849;28;20516;-71
2023/07/16 03:26:55;;;;;;;8.70;4.43;;;16.90;99.90;;;;;;5030720;28;20048;-71
2023/07/16 03:29:20;;;;;;;7.47;2.97;;;17.00;99.90;;;;;;5030227;28;20041;-71
2023/07/16 03:31:46;;;;;;;9.68;2.75;;;17.00;99.90;;;;;;5033091;28;20041;-71
2023/07/16 03:34:11;;;;;;;9.30;3.25;;;16.90;99.90;;;;;;5033763;28;20492;-71
2023/07/16 03:36:37;;;;;;;8.55;3.13;;;16.90;99.90;;;;;;5048029;22;20034;-67
2023/07/16 03:39:02;;;;;;;9.00;4.28;;;17.00;99.90;;;;;;5054325;28;20048;-66
2023/07/16 03:41:28;;;;;;;9.80;3.67;;;17.00;99.90;;;;;;5054591;28;20040;-66
2023/07/16 03:43:54;;;;;;;10.52;3.55;;;16.90;99.90;;;;;;5054635;28;20033;-66
2023/07/16 03:46:19;;;;;;;11.23;4.22;;;16.90;99.90;;;;;;5053411;28;20033;-66
2023/07/16 03:48:45;;;;;;;8.75;3.80;;;17.00;99.90;;;;;;5034439;28;20108;-66
2023/07/16 03:51:11;;;;;;;8.80;3.70;;;16.90;99.90;;;;;;5034289;28;20041;-66
2023/07/16 03:53:36;;;;;;;9.30;3.78;;;16.90;99.90;;;;;;5034464;28;20049;-66
2023/07/16 03:56:02;;;;;;;13.13;4.15;;;16.90;99.90;;;;;;5034180;28;20436;-66
2023/07/16 03:58:29;;;;;;;15.05;3.80;;;16.90;99.90;;;;;;5034118;28;20119;-67
2023/07/16 04:00:55;;;;;;;9.73;3.97;;;16.80;99.90;;;;;;5034121;28;20393;-67
2023/07/16 04:03:20;;;;;;;6.72;4.00;;;16.90;99.90;;;;;;5034318;28;20116;-67
2023/07/16 04:05:46;;;;;;;7.72;3.30;;;16.90;99.90;;;;;;5033822;28;20069;-66
2023/07/16 04:08:11;;;;;;;5.93;3.33;;;16.80;99.90;;;;;;5034224;28;20068;-67
2023/07/16 04:10:37;;;;;;;6.75;3.35;;;16.90;99.90;;;;;;5034234;28;20033;-67
2023/07/16 04:13:03;;;;;;;10.32;4.80;;;16.90;99.90;;;;;;5016549;28;20045;-67
2023/07/16 04:15:28;;;;;;;8.68;3.63;;;16.90;99.90;;;;;;5034007;28;20107;-67
2023/07/16 04:17:54;;;;;;;9.80;4.65;;;17.00;99.90;;;;;;5033625;28;20052;-67
2023/07/16 04:20:20;;;;;;;8.75;3.63;;;16.90;99.90;;;;;;5033816;28;20461;-67
2023/07/16 04:22:45;;;;;;;6.82;3.80;;;17.00;99.90;;;;;;5016106;28;20462;-67
2023/07/16 04:25:11;;;;;;;10.90;3.78;;;17.00;99.90;;;;;;5034028;28;20045;-67
2023/07/16 04:27:37;;;;;;;6.25;3.70;;;17.00;99.90;;;;;;5033494;28;20374;-67
2023/07/16 04:30:03;;;;;;;8.60;4.55;;;17.00;99.90;;;;;;5033761;28;20523;-67
2023/07/16 04:32:28;;;;;;;9.65;4.13;;;17.00;99.90;;;;;;5033585;28;20088;-67
2023/07/16 04:34:54;;;;;;;7.60;3.72;;;17.00;99.90;;;;;;5033551;28;20473;-67
2023/07/16 04:37:20;;;;;;;12.98;4.50;;;17.10;99.90;;;;;;5033199;28;20048;-67
2023/07/16 04:39:45;;;;;;;9.30;4.10;;;17.10;99.90;;;;;;5015694;28;20042;-67
2023/07/16 04:42:11;;;;;;;11.80;4.53;;;17.10;99.90;;;;;;5033427;28;20081;-67
2023/07/16 04:44:36;;;;;;;9.82;4.15;;;17.10;99.90;;;;;;5033063;28;20033;-67
2023/07/16 04:47:02;;;;;;;12.18;5.20;;;17.10;99.90;;;;;;5033056;28;20044;-67
2023/07/16 04:49:27;;;;;;;11.10;4.00;;;17.20;99.90;;;;;;5033392;28;20034;-67
2023/07/16 04:51:53;;;;;;;13.23;4.35;;;17.30;99.90;;;;;;5033489;28;20075;-67
2023/07/16 04:54:18;;;;;;;11.30;4.38;;;17.30;99.90;;;;;;5015850;28;20049;-67
2023/07/16 04:56:44;;;;;;;6.63;3.92;;;17.40;99.90;;;;;;5033032;28;20033;-67
2023/07/16 04:59:10;;;;;;;14.38;4.65;;;17.50;99.90;;;;;;5033157;28;20080;-67
2023/07/16 05:01:35;;;;;;;8.95;4.30;;;17.60;99.90;;;;;;5015534;28;20501;-67
2023/07/16 05:04:01;;;;;;;11.55;3.92;;;17.70;99.90;;;;;;5033156;28;20068;-67
2023/07/16 05:06:26;;;;;;;7.65;4.13;;;17.80;99.90;;;;;;5032661;28;20041;-67
2023/07/16 05:08:52;;;;;;;9.00;4.30;;;17.90;99.90;;;;;;5032975;28;20063;-67
2023/07/16 05:11:17;;;;;;;12.93;3.80;;;18.10;99.90;;;;;;5032928;28;20045;-67
2023/07/16 05:13:43;;;;;;;7.85;4.20;;;18.30;99.90;;;;;;5015349;28;20067;-67
2023/07/16 05:16:08;;;;;;;11.02;4.65;;;18.50;99.90;;;;;;5032597;28;20564;-67
2023/07/16 05:18:34;;;;;;;7.95;3.92;;;18.70;99.90;;;;;;5032776;28;20508;-67
2023/07/16 05:21:00;;;;;;;9.60;4.45;;;18.80;99.90;;;;;;5032687;28;20124;-67
2023/07/16 05:23:27;;;;;;;11.25;4.18;;;19.00;99.90;;;;;;5032880;28;20136;-67
2023/07/16 05:25:52;;;;;;;8.07;3.88;;;19.10;99.90;;;;;;5032117;28;20045;-67
2023/07/16 05:28:19;;;;;;;10.95;3.75;;;19.20;99.90;;;;;;5032560;28;20087;-67
2023/07/16 05:30:45;;;;;;;7.35;4.13;;;19.40;99.90;;;;;;5032650;28;20041;-67
2023/07/16 05:33:11;;;;;;;9.07;3.45;;;19.40;99.90;;;;;;5032571;28;20056;-67
2023/07/16 05:35:37;;;;;;;6.63;3.17;;;19.50;99.90;;;;;;5032360;28;20562;-67
2023/07/16 05:38:03;;;;;;;11.38;3.53;;;19.70;99.90;;;;;;5031837;28;20416;-67
2023/07/16 05:40:29;;;;;;;8.27;3.38;;;19.80;99.90;;;;;;5032279;28;20033;-67
2023/07/16 05:42:54;;;;;;;6.80;3.45;;;20.00;99.90;;;;;;5032126;28;20389;-67
2023/07/16 05:45:20;;;;;;;8.80;3.85;;;20.00;99.90;;;;;;5032337;28;20086;-67
2023/07/16 05:47:45;;;;;;;8.48;3.35;;;20.00;99.90;;;;;;5031864;28;20040;-67
2023/07/16 05:50:11;;;;;;;9.52;3.08;;;20.20;99.90;;;;;;5032122;28;20053;-68
2023/07/16 05:52:37;;;;;;;11.23;3.50;;;20.30;99.90;;;;;;5032233;28;20045;-67
2023/07/16 05:55:03;;;;;;;8.23;3.80;;;20.30;99.90;;;;;;5031463;28;20393;-68
2023/07/16 05:57:28;;;;;;;8.40;2.90;;;20.50;99.90;;;;;;5031826;28;20037;-67
2023/07/16 05:59:54;;;;;;;9.95;3.20;;;20.40;99.90;;;;;;5032027;28;20470;-67
2023/07/16 06:02:19;;;;;;;8.18;3.15;;;20.50;99.90;;;;;;5032047;28;20041;-67
2023/07/16 06:04:45;;;;;;;8.60;3.90;;;20.50;99.90;;;;;;5014359;28;20120;-67
2023/07/16 06:07:12;;;;;;;11.75;4.05;;;20.50;99.90;;;;;;5031687;28;20411;-67
2023/07/16 06:09:37;;;;;;;11.73;3.78;;;20.50;99.90;;;;;;5032087;28;20128;-67
2023/07/16 06:12:03;;;;;;;8.80;3.60;;;20.50;99.90;;;;;;5031807;28;20121;-67
2023/07/16 06:14:29;;;;;;;10.70;3.40;;;20.40;99.90;;;;;;5031784;28;20048;-67
2023/07/16 06:16:55;;;;;;;9.48;3.30;;;20.00;99.90;;;;;;5031416;28;20500;-67
2023/07/16 06:19:20;;;;;;;7.57;3.53;;;19.90;99.90;;;;;;5031711;28;20053;-67
2023/07/16 06:21:46;;;;;;;6.32;2.85;;;19.90;99.90;;;;;;5031946;28;20412;-67
2023/07/16 06:24:11;;;;;;;9.93;3.20;;;19.80;99.90;;;;;;5031540;28;20103;-67
2023/07/16 06:26:37;;;;;;;10.13;2.63;;;19.80;99.90;;;;;;5031447;28;20048;-67
2023/07/16 06:29:03;;;;;;;7.00;2.90;;;19.70;99.90;;;;;;5013853;28;20037;-67
2023/07/16 06:31:28;;;;;;;10.55;3.22;;;19.60;99.90;;;;;;5031555;28;20045;-67
2023/07/16 06:33:54;;;;;;;9.05;4.10;;;19.50;99.90;;;;;;5031497;28;20051;-67
2023/07/16 06:36:20;;;;;;;7.95;3.50;;;19.30;99.90;;;;;;5031423;28;20041;-67
2023/07/16 06:38:46;;;;;;;8.18;4.00;;;19.30;99.90;;;;;;5031390;28;20116;-67
2023/07/16 06:41:12;;;;;;;10.25;3.60;;;19.30;99.90;;;;;;5031562;28;20037;-67
2023/07/16 06:43:37;;;;;;;8.15;3.75;;;19.20;99.90;;;;;;5031509;28;20041;-68
2023/07/16 06:46:03;;;;;;;9.75;3.33;;;19.20;99.90;;;;;;5031215;28;20088;-67
2023/07/16 06:48:29;;;;;;;15.60;3.75;;;19.20;99.90;;;;;;5031304;28;20033;-67
2023/07/16 06:50:54;;;;;;;10.55;3.97;;;19.10;99.90;;;;;;5031587;28;20048;-67
2023/07/16 06:53:20;;;;;;;12.05;3.53;;;19.00;99.90;;;;;;5031583;28;20416;-67
2023/07/16 06:55:48;;;;;;;9.45;4.13;;;19.10;99.90;;;;;;5031134;28;20049;-67
2023/07/16 06:58:14;;;;;;;9.05;3.78;;;19.00;99.90;;;;;;5031265;28;20046;-68
2023/07/16 07:00:40;;;;;;;8.02;3.70;;;19.00;99.90;;;;;;5031197;28;20048;-67
2023/07/16 07:03:05;;;;;;;10.73;3.50;;;19.10;99.90;;;;;;5031224;28;20084;-67
2023/07/16 07:05:31;;;;;;;8.77;4.35;;;19.50;99.90;;;;;;5031422;28;20068;-67
2023/07/16 07:07:56;;;;;;;10.45;4.30;;;19.70;99.90;;;;;;5035181;28;20095;-67
2023/07/16 07:10:22;;;;;;;6.97;3.92;;;19.70;99.90;;;;;;5035359;28;20091;-67
2023/07/16 07:12:48;;;;;;;9.13;3.70;;;19.70;99.90;;;;;;5035175;28;20045;-67
2023/07/16 07:15:13;;;;;;;8.60;4.40;;;19.50;99.90;;;;;;5035175;28;20112;-67
2023/07/16 07:17:39;;;;;;;9.80;4.07;;;19.50;99.90;;;;;;5016974;28;20088;-67
2023/07/16 07:20:06;;;;;;;8.18;4.68;;;19.50;99.90;;;;;;5017294;28;20153;-67
2023/07/16 07:22:32;;;;;;;11.68;4.07;;;19.40;99.90;;;;;;5035114;28;20080;-68
2023/07/16 07:24:58;;;;;;;10.57;4.65;;;19.80;99.90;;;;;;5034887;28;20037;-67
2023/07/16 07:27:23;;;;;;;8.65;3.60;;;20.10;99.90;;;;;;5034596;28;20038;-67
2023/07/16 07:29:51;;;;;;;8.13;3.60;;;20.40;99.90;;;;;;5034915;28;20054;-67
2023/07/16 07:32:19;;;;;;;10.45;4.35;;;20.50;99.90;;;;;;5034939;28;20064;-67
2023/07/16 07:34:45;;;;;;;8.43;3.90;;;20.40;99.90;;;;;;5034030;28;20052;-67
2023/07/16 07:37:10;;;;;;;8.85;4.00;;;20.60;99.90;;;;;;5033966;28;20123;-67
2023/07/16 07:39:36;;;;;;;6.40;4.20;;;20.80;99.90;;;;;;5034065;28;20045;-68
2023/07/16 07:42:01;;;;;;;7.63;3.10;;;20.60;99.90;;;;;;5034173;28;20037;-67
2023/07/16 07:44:27;;;;;;;10.07;4.35;;;20.50;99.90;;;;;;5033899;28;20080;-67
2023/07/16 07:46:52;;;;;;;10.73;4.20;;;20.40;99.90;;;;;;5034029;28;20420;-68
2023/07/16 07:49:18;;;;;;;6.32;3.70;;;20.20;99.90;;;;;;5028478;28;20041;-67
2023/07/16 07:51:43;;;;;;;7.25;3.78;;;20.30;99.90;;;;;;5015139;28;20121;-67
2023/07/16 07:54:09;;;;;;;12.10;3.92;;;20.20;99.90;;;;;;5033042;28;20040;-68
2023/07/16 07:56:35;;;;;;;6.22;3.65;;;20.50;99.90;;;;;;5033664;28;20034;-68
2023/07/16 07:59:00;;;;;;;8.18;4.10;;;20.40;99.90;;;;;;5034073;28;20038;-68
2023/07/16 08:01:26;;;;;;;9.02;3.97;;;20.50;99.90;;;;;;5033615;28;20092;-68
2023/07/16 08:03:52;;;;;;;18.65;11.13;;;20.70;99.90;;;;;;5034033;28;20080;-68
2023/07/16 08:06:18;;;;;;;11.90;4.00;;;20.60;99.90;;;;;;5033532;28;20069;-67
2023/07/16 08:08:43;;;;;;;9.45;3.78;;;20.50;99.90;;;;;;5033797;28;20038;-67
2023/07/16 08:11:09;;;;;;;12.52;4.13;;;20.40;99.90;;;;;;5033947;28;20041;-67
2023/07/16 08:13:34;;;;;;;9.93;4.82;;;20.30;99.90;;;;;;4999464;28;20095;-68
2023/07/16 08:16:00;;;;;;;8.25;4.07;;;20.20;99.90;;;;;;5033654;28;20496;-68
2023/07/16 08:18:26;;;;;;;10.90;3.60;;;20.40;99.90;;;;;;5032936;28;20408;-67
2023/07/16 08:20:52;;;;;;;6.28;4.07;;;20.20;99.90;;;;;;5033638;28;20029;-67
2023/07/16 08:23:17;;;;;;;7.97;4.38;;;20.40;99.90;;;;;;5033870;28;20134;-67
2023/07/16 08:25:43;;;;;;;9.48;4.47;;;20.30;99.90;;;;;;5033412;28;20544;-67
2023/07/16 08:28:09;;;;;;;10.45;4.18;;;20.20;99.90;;;;;;5033474;28;20104;-67
2023/07/16 08:30:35;;;;;;;8.90;4.80;;;20.10;99.90;;;;;;5033521;28;20041;-67
2023/07/16 08:33:01;;;;;;;8.10;4.03;;;19.90;99.90;;;;;;5033635;28;20041;-68
2023/07/16 08:35:26;;;;;;;10.57;4.07;;;19.80;99.90;;;;;;5021991;28;20616;-68
2023/07/16 08:37:52;;;;;;;10.45;4.20;;;19.80;99.90;;;;;;5012970;28;20113;-68
2023/07/16 08:40:17;;;;;;;8.43;3.50;;;19.80;99.90;;;;;;5033206;28;20401;-68
2023/07/16 08:42:45;;;;;;;10.18;3.88;;;19.80;99.90;;;;;;5033151;28;20413;-67
2023/07/16 08:45:11;;;;;;;8.13;3.75;;;19.80;99.90;;;;;;5033238;28;20042;-67
2023/07/16 08:47:37;;;;;;;9.00;4.20;;;19.80;99.90;;;;;;5032770;28;20038;-67
2023/07/16 08:50:03;;;;;;;9.07;4.10;;;19.80;99.90;;;;;;5033249;28;20076;-67
2023/07/16 08:52:30;;;;;;;10.48;3.42;;;19.70;99.90;;;;;;5033131;28;20096;-67
2023/07/16 08:54:56;;;;;;;6.63;4.05;;;19.80;99.90;;;;;;5032687;28;20061;-67
2023/07/16 08:57:22;;;;;;;11.82;4.75;;;20.00;99.90;;;;;;5032514;28;20160;-66
2023/07/16 08:59:49;;;;;;;10.07;4.50;;;20.50;99.90;;;;;;5032955;28;20056;-67
2023/07/16 09:02:19;;;;;;;6.95;4.40;;;21.00;99.90;;;;;;5032881;28;20041;-68
2023/07/16 09:04:48;;;;;;;10.40;4.00;;;21.40;99.70;;;;;;5032981;28;20041;-67
2023/07/16 09:07:15;;;;;;;10.50;4.55;;;21.60;99.20;;;;;;5012872;28;20076;-69
2023/07/16 09:09:41;;;;;;;11.15;4.28;;;21.50;99.40;;;;;;5031686;28;20045;-67
2023/07/16 09:12:10;;;;;;;8.68;5.03;;;21.80;98.40;;;;;;5014680;28;20353;-67
2023/07/16 09:14:36;;;;;;;9.88;4.07;;;21.70;97.40;;;;;;5032276;28;20080;-67
2023/07/16 09:17:02;;;;;;;9.30;4.25;;;22.00;96.80;;;;;;5022944;28;20069;-67
2023/07/16 09:19:31;;;;;;;10.43;4.13;;;21.90;96.40;;;;;;5027689;28;20116;-67
2023/07/16 09:21:57;;;;;;;8.63;3.90;;;21.70;97.20;;;;;;5032430;28;20042;-67
2023/07/16 09:24:22;;;;;;;7.68;3.97;;;21.50;98.20;;;;;;5032447;28;20490;-67
2023/07/16 09:26:52;;;;;;;9.45;4.00;;;21.40;98.50;;;;;;5031778;28;20030;-67
2023/07/16 09:29:18;;;;;;;10.35;4.38;;;21.30;98.40;;;;;;5032523;28;20110;-67
2023/07/16 09:32:00;;;;;;;11.05;4.43;;;21.20;98.50;;;;;;5032360;28;20030;-67
2023/07/16 09:34:29;;;;;;;10.05;4.43;;;21.10;98.30;;;;;;5032396;28;20582;-67
2023/07/16 09:36:56;;;;;;;7.32;4.07;;;21.10;98.60;;;;;;5036091;22;20405;-70
2023/07/16 09:39:22;;;;;;;9.30;4.90;;;21.00;99.50;;;;;;5030683;28;20152;-71
2023/07/16 09:41:49;;;;;;;5.88;3.63;;;21.00;99.60;;;;;;5031451;28;20599;-71
2023/07/16 09:44:18;;;;;;;9.10;3.72;;;20.80;99.20;;;;;;5032509;28;20037;-71
2023/07/16 09:46:45;;;;;;;8.98;4.07;;;20.60;99.40;;;;;;5029770;28;20040;-70
2023/07/16 09:49:11;;;;;;;9.07;4.32;;;20.50;99.90;;;;;;5011945;28;20037;-70
2023/07/16 09:51:38;;;;;;;11.82;4.32;;;20.50;99.90;;;;;;4995353;28;20412;-70
2023/07/16 09:54:04;;;;;;;11.05;3.70;;;20.50;99.90;;;;;;5002586;28;20085;-71
2023/07/16 09:56:40;;;;;;;5.18;3.97;;;20.60;99.90;;;;;;5005033;28;20523;-70
2023/07/16 09:59:10;;;;;;;7.68;4.20;;;20.50;99.90;;;;;;5002654;28;20057;-69
2023/07/16 10:01:40;;;;;;;7.85;3.67;;;20.50;99.90;;;;;;5007016;28;20133;-70
2023/07/16 10:04:17;;;;;;;10.05;3.67;;;20.60;99.90;;;;;;5012026;28;20033;-73
2023/07/16 10:06:59;;;;;;;6.65;3.85;;;20.70;99.90;;;;;;5008370;28;20034;-69
2023/07/16 10:09:41;;;;;;;9.63;4.15;;;20.80;99.90;;;;;;5001310;28;20033;-69
2023/07/16 10:12:14;;;;;;;9.38;4.30;;;21.00;99.70;;;;;;5012485;28;20117;-71
2023/07/16 10:14:41;;;;;;;5.82;3.13;;;21.00;98.80;;;;;;5012008;28;20038;-70
2023/07/16 10:17:07;;;;;;;7.97;3.92;;;20.90;99.30;;;;;;5011425;28;20049;-70
2023/07/16 10:19:51;;;;;;;5.65;3.67;;;20.90;99.50;;;;;;5011785;28;20038;-71
2023/07/16 10:22:41;;;;;;;8.82;3.85;;;20.90;99.90;;;;;;5011655;28;20034;-71
2023/07/16 10:25:24;;;;;;;12.73;4.03;;;20.80;99.30;;;;;;4999144;28;20034;-70
2023/07/16 10:27:51;;;;;;;9.93;3.83;;;20.70;99.10;;;;;;4999416;28;20041;-70
2023/07/16 10:30:17;;;;;;;6.35;3.80;;;20.70;99.50;;;;;;5011730;28;20545;-71
2023/07/16 10:32:43;;;;;;;9.80;3.83;;;20.70;99.90;;;;;;5010294;28;20168;-70
2023/07/16 10:35:09;;;;;;;8.35;4.28;;;20.70;99.90;;;;;;5010390;28;20049;-70
2023/07/16 10:37:35;;;;;;;8.82;3.88;;;21.10;99.90;;;;;;5009742;28;20038;-71
2023/07/16 10:40:04;;;;;;;15.90;4.43;;;21.30;99.60;;;;;;5011811;28;20049;-70
2023/07/16 10:42:31;;;;;;;11.63;3.65;;;21.50;98.80;;;;;;5011250;28;20038;-71
2023/07/16 10:45:04;;;;;;;8.23;4.75;;;21.50;98.60;;;;;;5011719;28;20129;-71
2023/07/16 10:47:34;;;;;;;9.23;4.10;;;21.60;98.30;;;;;;5010987;28;20044;-70
2023/07/16 10:50:02;;;;;;;9.32;5.00;;;21.50;97.80;;;;;;5007021;28;20086;-70
2023/07/16 10:52:28;;;;;;;9.02;3.47;;;21.40;98.20;;;;;;5005806;28;20096;-71
2023/07/16 10:54:54;;;;;;;13.40;4.63;;;21.20;98.20;;;;;;4990675;28;20038;-71
2023/07/16 10:57:21;;;;;;;7.82;4.32;;;21.10;98.70;;;;;;5003444;28;20093;-70
2023/07/16 10:59:49;;;;;;;7.80;4.07;;;21.10;98.90;;;;;;4996009;28;20068;-70
2023/07/16 11:02:15;;;;;;;9.35;4.22;;;21.20;99.60;;;;;;5009713;28;20125;-70
2023/07/16 11:04:41;;;;;;;8.82;4.13;;;21.30;99.90;;;;;;4995787;28;20057;-71
2023/07/16 11:07:11;;;;;;;7.43;3.50;;;21.30;99.50;;;;;;5009301;28;20084;-69
2023/07/16 11:09:47;;;;;;;12.73;4.15;;;21.10;98.90;;;;;;5010280;28;20040;-70
2023/07/16 11:12:15;;;;;;;11.80;4.35;;;21.00;99.20;;;;;;5010492;28;20448;-70
2023/07/16 11:14:48;;;;;;;9.57;4.00;;;21.00;99.90;;;;;;5009987;28;20523;-70
2023/07/16 11:17:14;;;;;;;10.07;4.40;;;21.20;99.90;;;;;;5010138;28;20403;-70
2023/07/16 11:19:42;;;;;;;6.45;3.70;;;21.50;98.80;;;;;;5010149;28;20496;-69
2023/07/16 11:22:09;;;;;;;8.38;4.13;;;21.60;98.40;;;;;;5010102;28;20069;-70
2023/07/16 11:24:43;;;;;;;8.98;3.97;;;21.70;97.80;;;;;;5010528;28;20566;-70
2023/07/16 11:27:15;;;;;;;7.78;3.13;;;21.60;97.20;;;;;;5010983;28;20129;-70
2023/07/16 11:29:48;;;;;;;10.60;3.50;;;21.50;96.80;;;;;;5009661;28;20091;-70
2023/07/16 11:32:34;;;;;;;12.18;4.75;;;21.30;96.50;;;;;;5011601;28;20053;-70
2023/07/16 11:35:04;;;;;;;9.05;3.75;;;21.10;97.20;;;;;;5011412;28;20049;-70
2023/07/16 11:37:32;;;;;;;8.45;4.15;;;21.10;97.70;;;;;;5009871;28;20042;-69
2023/07/16 11:40:03;;;;;;;8.75;4.70;;;21.00;97.80;;;;;;5009864;28;20527;-70
2023/07/16 11:42:39;;;;;;;8.90;3.70;;;20.90;97.70;;;;;;5010531;28;20199;-70
2023/07/16 11:45:16;;;;;;;7.18;3.00;;;20.80;98.70;;;;;;5009960;28;20034;-70
2023/07/16 11:47:42;;;;;;;7.10;3.40;;;20.80;98.50;;;;;;5011025;28;20042;-70
2023/07/16 11:50:08;;;;;;;8.32;2.92;;;20.70;98.80;;;;;;5011269;28;20044;-70
2023/07/16 11:52:34;;;;;;;6.88;3.67;;;20.70;98.40;;;;;;5010375;28;20042;-70
2023/07/16 11:55:00;;;;;;;8.32;4.03;;;20.60;98.80;;;;;;5013624;28;20037;-70
2023/07/16 11:57:25;;;;;;;11.00;3.80;;;20.50;99.40;;;;;;5014619;28;20598;-69
2023/07/16 11:59:51;;;;;;;9.93;3.88;;;20.40;99.90;;;;;;5013490;28;20068;-69
2023/07/16 12:02:17;;;;;;;6.18;3.90;;;20.30;99.90;;;;;;5014896;28;20109;-70
2023/07/16 12:04:42;;;;;;;10.20;4.43;;;20.10;99.90;;;;;;5013396;28;20088;-70
2023/07/16 12:07:08;;;;;;;8.43;4.38;;;20.00;99.90;;;;;;5012916;28;20042;-69
2023/07/16 12:09:33;;;;;;;7.03;4.20;;;20.10;99.90;;;;;;5013542;28;20124;-70
2023/07/16 12:12:00;;;;;;;7.80;4.43;;;20.20;99.90;;;;;;5013410;28;20044;-70
2023/07/16 12:14:26;;;;;;;8.15;4.65;;;20.40;99.90;;;;;;5013464;28;20060;-69
2023/07/16 12:16:51;;;;;;;7.00;3.70;;;20.50;99.90;;;;;;5014038;28;20093;-69
2023/07/16 12:19:17;;;;;;;10.30;4.70;;;20.50;99.90;;;;;;5014313;28;20042;-69
2023/07/16 12:21:43;;;;;;;9.10;4.35;;;20.60;99.90;;;;;;5014257;28;20046;-69
2023/07/16 12:24:08;;;;;;;8.32;4.10;;;20.70;99.90;;;;;;5010205;28;20053;-70
2023/07/16 12:26:34;;;;;;;9.90;4.50;;;20.70;99.90;;;;;;5013626;28;20041;-70
2023/07/16 12:29:02;;;;;;;7.13;3.60;;;20.70;99.90;;;;;;5014185;28;20034;-70
2023/07/16 12:31:29;;;;;;;6.32;4.07;;;20.70;99.90;;;;;;5014113;28;20057;-69
2023/07/16 12:33:55;;;;;;;7.30;3.85;;;20.60;99.90;;;;;;5013846;28;20420;-69
2023/07/16 12:36:20;;;;;;;7.10;3.55;;;20.60;99.90;;;;;;5012596;28;20046;-69
2023/07/16 12:38:46;;;;;;;7.40;4.35;;;20.70;99.90;;;;;;5013753;28;20049;-69
2023/07/16 12:41:11;;;;;;;7.07;3.85;;;20.90;99.90;;;;;;5012150;28;20077;-69